Terminal Aerodrome Forecast
Issued by NWS

Home | Current Version | Previous Version | Text Only | Print | Product List | Glossary On
Versions: 1 2 3 4 5 6 7 8 9 10 11 12 13 14 15 16 17 18 19 20 21
000
FTUS41 KPBZ 301723
TAFDUJ
TAF
KDUJ 301723Z 3018/3118 11010KT P6SM VCSH OVC040
     FM310000 14011KT 5SM -SHRA OVC025 WS020/20040KT
     FM310800 14010KT 5SM -SHRA OVC015 WS020/20045KT
     FM311000 13010KT 3SM -SHRA OVC006 WS020/20045KT
     FM311500 18008KT 5SM -SHRA OVC008=

USA.gov is the U.S. government's official web portal to all federal, state and local government web resources and services.